Westport, Connecticut
Current Conditions -  °F | °C
As of 7:52 PM on Friday 19 Dec 2014 (Local Time) from KBDR Reporting Station
Clear Clear  
Wind Chill: 24°   Ceiling: Unl
Heat Index: 31°   Visibility: 10mi
Dew Point: 20°   Wind: 7mph
Humidity: 64%   Direction: 330°NNW
Pressure: 30.14"   Gusts: NA
Location:  41.14°N, 73.36°W
Report Text: KBDR 200052Z 33006KT 10SM CLR M01/M07 A3014 RMK AO2 SLP206 T10061067
Loading
Personal Weather Stations






























Interactive Weather Map New forecast layout! Learn more

10-Day Weather Forecast

Advertisements
Track Severe Weather on mobile